Data for 12/31/2007

Time Sea-Level Adjusted Pressure Absolute Pressure Temperature Relative Humidity Dew Point   
(mb) (inHg) (mb) (inHg) (C) (F) (%) (C) (F)
00:05 1015 29.97 845 24.95 -4.8 23.5 50 -13.7 7.4
00:10 1015 29.97 845 24.95 -4.8 23.3 50 -13.7 7.3
00:15 1015 29.97 845 24.95 -4.9 23.2 51 -13.5 7.7
00:20 1015 29.97 845 24.95 -5 23.1 51 -13.5 7.7
00:25 1015 29.97 845 24.95 -5 23 52 -13.5 7.8
00:30 1016 30 845 24.95 -5 22.9 52 -13.5 7.7
00:35 1016 30 845 24.95 -5 23 50 -14 6.9
00:40 1016 30 845 24.95 -4.9 23.2 50 -13.8 7.1
00:45 1016 30 845 24.95 -4.9 23.2 48 -14.4 6.1
00:50 1016 30 845 24.95 -4.8 23.3 48 -14.4 6.1
00:55 1016 30 845 24.95 -4.8 23.4 47 -14.5 5.9
01:00 1016 30 845 24.95 -4.8 23.4 46 -14.6 5.7
01:05 1016 30 845 24.95 -4.7 23.5 45 -14.9 5.3
01:10 1016 30 845 24.95 -4.7 23.5 47 -14.4 6
01:15 1016 30 845 24.95 -4.7 23.5 47 -14.3 6.2
01:20 1016 30 845 24.95 -4.7 23.5 48 -14.1 6.6
01:25 1016 30 845 24.95 -4.8 23.4 50 -13.6 7.5
01:30 1016 30 845 24.95 -4.9 23.2 51 -13.6 7.5
01:35 1016 30 845 24.95 -4.9 23.2 51 -13.5 7.7
01:40 1016 30 845 24.95 -4.9 23.2 50 -13.8 7.2
01:45 1016 30 846 24.98 -4.8 23.3 49 -13.9 7
01:50 1017 30.03 846 24.98 -4.9 23.2 50 -13.8 7.2
01:55 1017 30.03 846 24.98 -4.9 23.1 50 -13.8 7.1
02:00 1017 30.03 846 24.98 -5.2 22.7 53 -13.3 8.1
02:05 1017 30.03 846 24.98 -5.4 22.2 54 -13.2 8.2
02:10 1017 30.03 846 24.98 -5.6 22 55 -13.2 8.2
02:15 1017 30.03 846 24.98 -5.6 21.9 55 -13.3 8
02:20 1017 30.03 846 24.98 -5.6 21.9 53 -13.7 7.4
02:25 1017 30.03 846 24.98 -5.6 22 53 -13.6 7.5
02:30 1017 30.03 846 24.98 -5.6 21.8 55 -13.3 8
02:35 1017 30.03 846 24.98 -5.7 21.7 55 -13.4 7.9
02:40 1017 30.03 846 24.98 -5.7 21.8 55 -13.4 7.9
02:45 1017 30.03 847 25.01 -5.7 21.8 55 -13.3 8.1
02:50 1017 30.03 847 25.01 -5.7 21.8 54 -13.5 7.7
02:55 1018 30.06 847 25.01 -5.5 22.2 49 -14.7 5.6
03:00 1018 30.06 847 25.01 -5.2 22.7 48 -14.5 5.9
03:05 1018 30.06 847 25.01 -5.2 22.7 49 -14.4 6.1
03:10 1018 30.06 847 25.01 -5.1 22.8 49 -14.3 6.2
03:15 1018 30.06 847 25.01 -5 23 46 -15 5
03:20 1018 30.06 847 25.01 -4.9 23.2 46 -14.9 5.2
03:25 1018 30.06 847 25.01 -4.9 23.2 47 -14.6 5.7
03:30 1018 30.06 847 25.01 -4.9 23.1 47 -14.7 5.6
03:35 1018 30.06 847 25.01 -4.9 23.1 46 -14.8 5.4
03:40 1018 30.06 847 25.01 -5 23.1 50 -13.9 7
03:45 1018 30.06 847 25.01 -5.2 22.6 49 -14.3 6.2
03:50 1018 30.06 848 25.04 -5.3 22.5 49 -14.4 6.1
03:55 1018 30.06 848 25.04 -5.4 22.4 51 -14.1 6.6
04:00 1018 30.06 848 25.04 -5.5 22.2 52 -13.8 7.2
04:05 1018 30.06 848 25.04 -5.5 22.1 52 -13.8 7.1
04:10 1018 30.06 848 25.04 -5.4 22.2 49 -14.5 5.9
04:15 1018 30.06 848 25.04 -5.3 22.5 49 -14.4 6
04:20 1018 30.06 848 25.04 -5.2 22.6 49 -14.3 6.2
04:25 1019 30.09 848 25.04 -5.3 22.5 50 -14.1 6.7
04:30 1019 30.09 848 25.04 -5.3 22.4 50 -14.3 6.3
04:35 1019 30.09 848 25.04 -5.3 22.5 48 -14.7 5.5
04:40 1019 30.09 848 25.04 -5.2 22.7 47 -14.7 5.5
04:45 1019 30.09 848 25.04 -5.1 22.8 46 -14.9 5.1
04:50 1019 30.09 848 25.04 -5.1 22.7 47 -14.7 5.5
04:55 1019 30.09 848 25.04 -5.2 22.7 48 -14.5 5.9
05:00 1019 30.09 848 25.04 -5.2 22.7 48 -14.6 5.7
05:05 1019 30.09 848 25.04 -5.2 22.7 48 -14.6 5.7
05:10 1019 30.09 848 25.04 -5.2 22.7 49 -14.4 6.1
05:15 1019 30.09 848 25.04 -5.2 22.6 50 -14.2 6.5
05:20 1019 30.09 848 25.04 -5.5 22.2 52 -13.9 7
05:25 1019 30.09 848 25.04 -5.5 22 50 -14.3 6.3
05:30 1019 30.09 848 25.04 -5.5 22.2 51 -14.1 6.7
05:35 1019 30.09 848 25.04 -5.5 22.2 50 -14.3 6.2
05:40 1019 30.09 848 25.04 -5.4 22.3 49 -14.6 5.8
05:45 1019 30.09 848 25.04 -5.3 22.4 49 -14.5 5.9
05:50 1019 30.09 848 25.04 -5.3 22.5 49 -14.3 6.2
05:55 1019 30.09 849 25.07 -5.3 22.5 49 -14.3 6.2
06:00 1019 30.09 849 25.07 -5.2 22.6 48 -14.6 5.8
06:05 1020 30.12 849 25.07 -5.2 22.6 47 -14.9 5.2
06:10 1020 30.12 849 25.07 -5.2 22.6 47 -14.8 5.4
06:15 1020 30.12 849 25.07 -5.2 22.7 48 -14.6 5.7
06:20 1020 30.12 849 25.07 -5.3 22.5 48 -14.6 5.7
06:25 1020 30.12 849 25.07 -5.3 22.4 50 -14.3 6.3
06:30 1020 30.12 849 25.07 -5.3 22.4 49 -14.4 6.1
06:35 1020 30.12 849 25.07 -5.4 22.3 52 -13.8 7.2
06:40 1020 30.12 849 25.07 -5.4 22.2 52 -13.9 6.9
06:45 1020 30.12 849 25.07 -5.4 22.2 50 -14.4 6.2
06:50 1020 30.12 849 25.07 -5.4 22.3 50 -14.2 6.5
06:55 1020 30.12 850 25.1 -5.3 22.4 49 -14.5 5.8
07:00 1020 30.12 850 25.1 -5.2 22.6 49 -14.3 6.3
07:05 1020 30.12 850 25.1 -5.2 22.6 50 -14.2 6.5
07:10 1021 30.15 850 25.1 -5.3 22.5 50 -14.1 6.6
07:15 1021 30.15 850 25.1 -5.3 22.4 51 -14 6.9
07:20 1021 30.15 850 25.1 -5.4 22.4 50 -14.3 6.3
07:25 1021 30.15 850 25.1 -5.3 22.5 49 -14.5 5.8
07:30 1021 30.15 850 25.1 -5.3 22.5 50 -14.2 6.4
07:35 1021 30.15 850 25.1 -5.3 22.5 50 -14.1 6.7
07:40 1021 30.15 850 25.1 -5.4 22.4 50 -14.3 6.3
07:45 1021 30.15 850 25.1 -5.3 22.5 48 -14.7 5.5
07:50 1021 30.15 850 25.1 -5.2 22.6 49 -14.4 6.1
07:55 1021 30.15 850 25.1 -5.2 22.7 49 -14.4 6.1
08:00 1021 30.15 850 25.1 -5.2 22.6 49 -14.3 6.2
08:05 1021 30.15 850 25.1 -5.2 22.6 49 -14.4 6.1
08:10 1021 30.15 851 25.13 -5.3 22.5 51 -14 6.8
08:15 1021 30.15 851 25.13 -5.3 22.5 50 -14.1 6.6
08:20 1022 30.18 851 25.13 -5.3 22.5 50 -14.1 6.6
08:25 1022 30.18 851 25.13 -5.3 22.5 50 -14.1 6.6
08:30 1022 30.18 851 25.13 -5.4 22.4 51 -14.1 6.6
08:35 1022 30.18 851 25.13 -5.3 22.4 52 -13.8 7.2
08:40 1022 30.18 851 25.13 -5.3 22.4 51 -14 6.8
08:45 1022 30.18 851 25.13 -5.3 22.5 50 -14.3 6.3
08:50 1022 30.18 851 25.13 -5.3 22.5 50 -14.2 6.4
08:55 1022 30.18 851 25.13 -5.3 22.5 50 -14.1 6.7
09:00 1022 30.18 852 25.16 -5.3 22.5 51 -14 6.8
09:05 1022 30.18 852 25.16 -5.3 22.5 51 -14 6.8
09:10 1022 30.18 852 25.16 -5.3 22.5 50 -14.1 6.6
09:15 1023 30.21 852 25.16 -5.3 22.5 50 -14.1 6.7
09:20 1023 30.21 852 25.16 -5.2 22.6 50 -14 6.7
09:25 1023 30.21 852 25.16 -5.2 22.6 51 -14 6.9
09:30 1023 30.21 852 25.16 -5.2 22.6 50 -14 6.8
09:35 1023 30.21 852 25.16 -5.2 22.6 50 -14.1 6.6
09:40 1023 30.21 852 25.16 -5.2 22.7 50 -14.2 6.5
09:45 1023 30.21 852 25.16 -5.2 22.7 50 -14.1 6.6
09:50 1023 30.21 852 25.16 -5.2 22.7 49 -14.3 6.3
09:55 1023 30.21 852 25.16 -5.1 22.7 49 -14.2 6.5
10:00 1023 30.21 852 25.16 -5.1 22.8 49 -14.2 6.5
10:05 1023 30.21 853 25.19 -5.1 22.9 49 -14.2 6.4
10:10 1023 30.21 853 25.19 -5.1 22.9 49 -14.3 6.3
10:15 1023 30.21 853 25.19 -5 23 49 -14 6.7
10:20 1024 30.24 853 25.19 -4.9 23.1 48 -14.4 6
10:25 1024 30.24 853 25.19 -4.9 23.2 48 -14.3 6.2
10:30 1024 30.24 853 25.19 -4.8 23.4 47 -14.5 5.9
10:35 1024 30.24 853 25.19 -4.7 23.5 46 -14.7 5.5
10:40 1024 30.24 853 25.19 -4.6 23.7 47 -14.4 6
10:45 1024 30.24 853 25.19 -4.6 23.8 46 -14.6 5.7
10:50 1024 30.24 853 25.19 -4.6 23.7 46 -14.6 5.7
10:55 1024 30.24 853 25.19 -4.6 23.7 45 -14.7 5.5
11:00 1024 30.24 853 25.19 -4.5 23.8 45 -14.9 5.2
11:05 1024 30.24 853 25.19 -4.5 23.8 44 -14.9 5.1
11:10 1024 30.24 853 25.19 -4.5 23.8 45 -14.8 5.3
11:15 1024 30.24 853 25.19 -4.4 24.1 44 -14.9 5.2
11:20 1024 30.24 853 25.19 -4.2 24.5 43 -15.1 4.8
11:25 1024 30.24 853 25.19 -4.1 24.7 42 -15.2 4.6
11:30 1024 30.24 854 25.22 -3.9 25 42 -14.9 5.1
11:35 1024 30.24 854 25.22 -4.1 24.7 43 -15 5.1
11:40 1024 30.24 854 25.22 -4.2 24.4 43 -15.1 4.7
11:45 1024 30.24 854 25.22 -4.3 24.2 42 -15.3 4.4
11:50 1024 30.24 854 25.22 -4.3 24.3 41 -15.5 4
11:55 1024 30.24 854 25.22 -4 24.7 42 -15.2 4.7
12:00 1024 30.24 853 25.19 -3.9 24.9 41 -15.4 4.4
12:05 1024 30.24 853 25.19 -3.8 25.1 42 -15.1 4.9
12:10 1024 30.24 853 25.19 -3.7 25.3 41 -15.2 4.6
12:15 1024 30.24 853 25.19 -3.8 25.2 40 -15.6 4
12:20 1024 30.24 853 25.19 -3.7 25.3 40 -15.4 4.3
12:25 1024 30.24 854 25.22 -3.7 25.4 41 -15 4.9
12:30 1024 30.24 853 25.19 -3.6 25.4 40 -15.5 4.1
12:35 1024 30.24 853 25.19 -3.6 25.5 41 -15.1 4.8
12:40 1024 30.24 853 25.19 -3.7 25.4 41 -15.2 4.7
12:45 1024 30.24 853 25.19 -3.6 25.5 40 -15.5 4.1
12:50 1024 30.24 853 25.19 -3.6 25.6 40 -15.4 4.3
12:55 1024 30.24 853 25.19 -3.5 25.7 39 -15.5 4.2
13:00 1024 30.24 854 25.22 -3.6 25.6 40 -15.2 4.7
13:05 1024 30.24 854 25.22 -3.6 25.5 40 -15.5 4.1
13:10 1024 30.24 854 25.22 -3.6 25.6 41 -15 5
13:15 1024 30.24 854 25.22 -3.7 25.4 47 -13.6 7.6
13:20 1024 30.24 854 25.22 -4.1 24.7 45 -14.5 5.9
13:25 1024 30.24 854 25.22 -4 24.8 42 -15.2 4.6
13:30 1025 30.27 854 25.22 -3.8 25.1 42 -15 5
13:35 1025 30.27 854 25.22 -3.7 25.3 40 -15.4 4.3
13:40 1025 30.27 854 25.22 -3.7 25.4 43 -14.6 5.7
13:45 1025 30.27 854 25.22 -3.8 25.2 49 -13.1 8.4
13:50 1025 30.27 854 25.22 -4 24.7 44 -14.5 5.8
13:55 1025 30.27 854 25.22 -3.8 25.1 44 -14.4 6
14:00 1025 30.27 854 25.22 -3.7 25.3 42 -14.9 5.2
14:05 1025 30.27 854 25.22 -3.6 25.4 44 -14.2 6.4
14:10 1025 30.27 854 25.22 -3.6 25.5 45 -13.9 7
14:15 1025 30.27 854 25.22 -3.6 25.5 45 -14 6.9
14:20 1025 30.27 854 25.22 -3.5 25.7 46 -13.6 7.5
14:25 1025 30.27 854 25.22 -3.4 25.8 45 -13.7 7.4
14:30 1025 30.27 854 25.22 -3.6 25.6 44 -14 6.8
14:35 1025 30.27 855 25.25 -3.6 25.4 46 -13.7 7.4
14:40 1025 30.27 855 25.25 -3.6 25.4 44 -14.2 6.5
14:45 1025 30.27 855 25.25 -3.7 25.4 45 -14.1 6.7
14:50 1026 30.3 855 25.25 -3.7 25.3 49 -12.9 8.8
14:55 1026 30.3 855 25.25 -4 24.8 51 -12.6 9.3
15:00 1026 30.3 855 25.25 -4.2 24.5 51 -12.8 8.9
15:05 1026 30.3 855 25.25 -4.1 24.6 54 -12.1 10.2
15:10 1026 30.3 855 25.25 -4.2 24.5 52 -12.7 9.1
15:15 1026 30.3 855 25.25 -4.1 24.6 53 -12.3 9.8
15:20 1026 30.3 855 25.25 -4.1 24.6 52 -12.5 9.5
15:25 1026 30.3 855 25.25 -4.1 24.5 55 -12 10.4
15:30 1026 30.3 855 25.25 -4.2 24.5 56 -11.7 11
15:35 1026 30.3 856 25.28 -4.3 24.3 55 -11.9 10.6
15:40 1026 30.3 856 25.28 -4.3 24.2 55 -12 10.4
15:45 1027 30.33 856 25.28 -4.3 24.2 52 -12.8 8.9
15:50 1027 30.33 856 25.28 -4.1 24.6 53 -12.4 9.7
15:55 1027 30.33 856 25.28 -4.2 24.5 53 -12.3 9.8
16:00 1027 30.33 856 25.28 -4.3 24.2 56 -11.8 10.8
16:05 1027 30.33 856 25.28 -4.3 24.3 54 -12.4 9.7
16:10 1027 30.33 856 25.28 -4.2 24.5 50 -13.2 8.2
16:15 1027 30.33 856 25.28 -4.1 24.6 50 -13 8.6
16:20 1027 30.33 856 25.28 -4.2 24.5 52 -12.7 9.2
16:25 1027 30.33 856 25.28 -4.3 24.3 53 -12.5 9.4
16:30 1027 30.33 857 25.31 -4.3 24.3 53 -12.5 9.4
16:35 1027 30.33 857 25.31 -4.3 24.3 53 -12.5 9.5
16:40 1027 30.33 857 25.31 -4.3 24.3 50 -13.1 8.4
16:45 1027 30.33 857 25.31 -4.3 24.3 49 -13.5 7.6
16:50 1028 30.36 857 25.31 -4.3 24.3 48 -13.6 7.5
16:55 1028 30.36 857 25.31 -4.3 24.3 50 -13.1 8.4
17:00 1028 30.36 857 25.31 -4.4 24.1 52 -12.7 9.1
17:05 1028 30.36 857 25.31 -4.5 23.9 53 -12.7 9.1
17:10 1028 30.36 857 25.31 -4.6 23.8 54 -12.4 9.7
17:15 1028 30.36 857 25.31 -4.6 23.7 53 -12.7 9.1
17:20 1028 30.36 857 25.31 -4.6 23.8 52 -13.1 8.4
17:25 1028 30.36 857 25.31 -4.5 23.9 49 -13.6 7.5
17:30 1028 30.36 857 25.31 -4.4 24 50 -13.4 8
17:35 1028 30.36 857 25.31 -4.5 24 51 -13.2 8.2
17:40 1028 30.36 857 25.31 -4.6 23.8 51 -13.3 8.1
17:45 1028 30.36 857 25.31 -4.5 23.8 51 -13.2 8.3
17:50 1028 30.36 857 25.31 -4.6 23.7 52 -12.9 8.7
17:55 1028 30.36 857 25.31 -4.6 23.7 50 -13.4 7.8
18:00 1028 30.36 857 25.31 -4.6 23.7 51 -13.4 8
18:05 1028 30.36 858 25.34 -4.6 23.7 49 -13.7 7.4
18:10 1028 30.36 858 25.34 -4.6 23.8 50 -13.4 7.9
18:15 1028 30.36 858 25.34 -4.7 23.6 52 -13.1 8.5
18:20 1028 30.36 858 25.34 -4.7 23.5 51 -13.3 8.1
18:25 1028 30.36 858 25.34 -4.7 23.6 51 -13.4 7.9
18:30 1029 30.39 858 25.34 -4.7 23.6 50 -13.5 7.6
18:35 1029 30.39 858 25.34 -4.6 23.7 48 -14.1 6.7
18:40 1029 30.39 858 25.34 -4.5 23.9 47 -14.1 6.6
18:45 1029 30.39 858 25.34 -4.5 24 47 -14.3 6.3
18:50 1029 30.39 858 25.34 -4.4 24 48 -14 6.9
18:55 1029 30.39 858 25.34 -4.4 24.1 47 -14.1 6.6
19:00 1029 30.39 858 25.34 -4.4 24 49 -13.6 7.5
19:05 1029 30.39 858 25.34 -4.6 23.7 53 -12.8 8.9
19:10 1029 30.39 858 25.34 -4.9 23.1 55 -12.7 9.1
19:15 1029 30.39 858 25.34 -5.1 22.9 55 -12.8 9
19:20 1029 30.39 858 25.34 -5.2 22.7 56 -12.7 9.1
19:25 1029 30.39 858 25.34 -5.2 22.7 54 -13 8.6
19:30 1029 30.39 858 25.34 -5.2 22.7 55 -12.8 9
19:35 1029 30.39 858 25.34 -5.2 22.7 54 -13.1 8.4
19:40 1029 30.39 858 25.34 -5.2 22.7 54 -13.2 8.3
19:45 1029 30.39 858 25.34 -5.2 22.7 51 -13.7 7.3
19:50 1029 30.39 858 25.34 -5.2 22.6 50 -14 6.7
19:55 1029 30.39 858 25.34 -5.2 22.6 50 -14.2 6.5
20:00 1029 30.39 858 25.34 -5.2 22.6 49 -14.4 6
20:05 1029 30.39 858 25.34 -5.4 22.4 52 -13.7 7.3
20:10 1029 30.39 859 25.37 -5.8 21.6 55 -13.4 7.8
20:15 1029 30.39 859 25.37 -6.2 20.8 57 -13.4 7.9
20:20 1029 30.39 859 25.37 -6.2 20.8 56 -13.6 7.4
20:25 1029 30.39 859 25.37 -6.2 20.9 54 -14 6.9
20:30 1030 30.42 859 25.37 -6.2 20.9 54 -14 6.8
20:35 1030 30.42 859 25.37 -5.9 21.4 50 -14.7 5.5
20:40 1030 30.42 859 25.37 -5.6 22 49 -14.7 5.6
20:45 1030 30.42 859 25.37 -5.6 22 52 -13.9 7
20:50 1030 30.42 859 25.37 -5.8 21.6 54 -13.6 7.6
20:55 1030 30.42 859 25.37 -5.9 21.3 52 -14.2 6.4
21:00 1030 30.42 859 25.37 -6 21.3 51 -14.5 5.9
21:05 1030 30.42 859 25.37 -5.9 21.4 53 -13.9 6.9
21:10 1030 30.42 859 25.37 -5.9 21.3 53 -14.1 6.7
21:15 1030 30.42 859 25.37 -5.9 21.3 53 -14 6.8
21:20 1030 30.42 859 25.37 -5.8 21.6 52 -14 6.7
21:25 1030 30.42 859 25.37 -5.7 21.8 52 -14.1 6.7
21:30 1030 30.42 859 25.37 -5.8 21.6 53 -14 6.9
21:35 1030 30.42 859 25.37 -5.7 21.7 51 -14.3 6.2
21:40 1030 30.42 859 25.37 -5.6 21.8 51 -14.4 6.2
21:45 1030 30.42 860 25.4 -5.6 22 51 -14.3 6.3
21:50 1030 30.42 860 25.4 -5.6 21.9 51 -14.1 6.6
21:55 1030 30.42 860 25.4 -5.6 21.8 51 -14.2 6.4
22:00 1030 30.42 860 25.4 -5.7 21.7 52 -14.2 6.4
22:05 1031 30.45 860 25.4 -5.8 21.5 51 -14.5 5.8
22:10 1031 30.45 860 25.4 -5.9 21.4 51 -14.5 5.9
22:15 1031 30.45 860 25.4 -5.9 21.4 50 -14.7 5.5
22:20 1031 30.45 860 25.4 -5.8 21.5 50 -14.6 5.7
22:25 1031 30.45 860 25.4 -5.7 21.7 49 -14.9 5.2
22:30 1031 30.45 860 25.4 -5.7 21.7 50 -14.7 5.6
22:35 1031 30.45 860 25.4 -5.8 21.6 49 -14.8 5.4
22:40 1031 30.45 860 25.4 -5.9 21.4 51 -14.5 5.9
22:45 1031 30.45 860 25.4 -6.1 21 52 -14.5 5.9
22:50 1031 30.45 860 25.4 -6.3 20.6 52 -14.6 5.8
22:55 1031 30.45 860 25.4 -6.4 20.5 52 -14.7 5.5
23:00 1031 30.45 860 25.4 -6.5 20.2 53 -14.6 5.7
23:05 1031 30.45 860 25.4 -6.7 20 51 -15.1 4.8
23:10 1031 30.45 860 25.4 -6.7 20 52 -14.8 5.3
23:15 1031 30.45 860 25.4 -6.6 20 51 -15.2 4.7
23:20 1031 30.45 860 25.4 -6.7 19.9 51 -15.4 4.3
23:25 1031 30.45 860 25.4 -6.8 19.8 50 -15.6 4
23:30 1031 30.45 860 25.4 -6.8 19.7 49 -15.7 3.7
23:35 1031 30.45 860 25.4 -6.9 19.6 50 -15.8 3.6
23:40 1031 30.45 860 25.4 -7 19.4 50 -15.8 3.5
23:45 1031 30.45 861 25.43 -7.1 19.2 51 -15.7 3.7
23:50 1031 30.45 861 25.43 -7.3 18.9 52 -15.5 4.2
23:55 1031 30.45 861 25.43 -7.4 18.8 51 -15.9 3.3
24:00 1031 30.45 861 25.43 -7.4 18.6 52 -15.8 3.5